Time;durP1;ratioP1;P1;durP2;ratioP2;P2;SDS_P1;SDS_P2;PMS_P1;PMS_P2;Temp;Humidity;BMP_temperature;BMP_pressure;BME280_temperature;BME280_humidity;BME280_pressure;Samples;Min_cycle;Max_cycle;Signal;HPM_P1;HPM_P2
2023/05/01 00:00:54;;;;;;;11.38;6.40;;;;;;;;;;5033129;28;20025;-77
2023/05/01 00:03:20;;;;;;;12.82;6.25;;;;;;;;;;5032838;28;20034;-77
2023/05/01 00:05:47;;;;;;;22.35;6.20;;;;;;;;;;5032836;28;20476;-77
2023/05/01 00:08:15;;;;;;;12.45;5.95;;;;;;;;;;5032969;28;20072;-77
2023/05/01 00:10:43;;;;;;;14.18;6.10;;;;;;;;;;5032732;28;20037;-77
2023/05/01 00:13:09;;;;;;;16.20;6.15;;;;;;;;;;5032763;28;20633;-77
2023/05/01 00:15:35;;;;;;;10.40;6.28;;;;;;;;;;5033551;28;20032;-77
2023/05/01 00:18:01;;;;;;;13.50;5.28;;;;;;;;;;5032694;28;20380;-77
2023/05/01 00:20:27;;;;;;;13.05;5.97;;;;;;;;;;5032653;28;20471;-77
2023/05/01 00:22:53;;;;;;;12.77;5.93;;;;;;;;;;5014997;28;20087;-77
2023/05/01 00:25:20;;;;;;;14.43;6.97;;;;;;;;;;5032658;28;20495;-77
2023/05/01 00:27:47;;;;;;;14.63;6.40;;;;;;;;;;5032857;28;20108;-77
2023/05/01 00:30:13;;;;;;;13.20;6.22;;;;;;;;;;5034597;28;20083;-77
2023/05/01 00:32:39;;;;;;;12.52;6.32;;;;;;;;;;5036412;28;20030;-77
2023/05/01 00:35:05;;;;;;;11.27;5.55;;;;;;;;;;5036403;28;20048;-77
2023/05/01 00:37:31;;;;;;;10.77;6.70;;;;;;;;;;5036163;28;20034;-77
2023/05/01 00:39:57;;;;;;;10.07;6.00;;;;;;;;;;5034771;28;20030;-76
2023/05/01 00:42:23;;;;;;;13.93;6.50;;;;;;;;;;5036052;28;20037;-77
2023/05/01 00:44:49;;;;;;;13.65;6.10;;;;;;;;;;5036337;28;20021;-77
2023/05/01 00:47:15;;;;;;;10.75;5.90;;;;;;;;;;5036434;28;20026;-77
2023/05/01 00:49:45;;;;;;;9.70;5.35;;;;;;;;;;5018424;28;20026;-77
2023/05/01 00:52:16;;;;;;;15.65;5.88;;;;;;;;;;5036084;28;20030;-77
2023/05/01 00:54:43;;;;;;;10.95;5.63;;;;;;;;;;5035943;28;20025;-76
2023/05/01 00:57:09;;;;;;;10.70;5.78;;;;;;;;;;5036212;28;20061;-77
2023/05/01 00:59:35;;;;;;;11.35;5.90;;;;;;;;;;5018056;28;20030;-77
2023/05/01 01:02:01;;;;;;;11.40;5.95;;;;;;;;;;5036062;28;20076;-77
2023/05/01 01:04:30;;;;;;;11.90;5.80;;;;;;;;;;5035822;28;20022;-77
2023/05/01 01:07:10;;;;;;;9.95;5.40;;;;;;;;;;5036017;28;20017;-77
2023/05/01 01:09:55;;;;;;;11.73;5.75;;;;;;;;;;5035804;28;20037;-77
2023/05/01 01:12:26;;;;;;;12.38;6.45;;;;;;;;;;5035971;28;20056;-76
2023/05/01 01:14:58;;;;;;;9.70;5.07;;;;;;;;;;5035583;28;20104;-77
2023/05/01 01:17:37;;;;;;;8.27;5.18;;;;;;;;;;5035500;28;20055;-76
2023/05/01 01:20:05;;;;;;;10.02;4.78;;;;;;;;;;5035438;28;20036;-76
2023/05/01 01:22:34;;;;;;;11.68;5.68;;;;;;;;;;5035536;28;20061;-76
2023/05/01 01:25:33;;;;;;;10.88;5.07;;;;;;;;;;5035441;28;20464;-76
2023/05/01 01:28:25;;;;;;;8.45;5.25;;;;;;;;;;5002399;28;20042;-77
2023/05/01 01:31:08;;;;;;;8.95;5.15;;;;;;;;;;5012435;28;20068;-77
2023/05/01 01:33:37;;;;;;;10.23;5.13;;;;;;;;;;5027391;28;20427;-77
2023/05/01 01:36:06;;;;;;;10.57;5.30;;;;;;;;;;5015533;28;20593;-77
2023/05/01 01:38:51;;;;;;;13.15;5.43;;;;;;;;;;5015443;28;20053;-76
2023/05/01 01:41:21;;;;;;;9.40;5.25;;;;;;;;;;4992716;28;20116;-77
2023/05/01 01:43:51;;;;;;;8.52;4.85;;;;;;;;;;4995492;28;20040;-76
2023/05/01 01:46:19;;;;;;;9.63;5.15;;;;;;;;;;4994530;28;20061;-76
2023/05/01 01:48:48;;;;;;;7.50;4.22;;;;;;;;;;4995728;28;20018;-77
2023/05/01 01:51:16;;;;;;;7.93;5.05;;;;;;;;;;4995321;28;20049;-76
2023/05/01 01:53:45;;;;;;;8.80;4.80;;;;;;;;;;4995654;28;20523;-76
2023/05/01 01:56:12;;;;;;;11.73;5.25;;;;;;;;;;4995322;28;20102;-76
2023/05/01 01:58:39;;;;;;;9.57;5.05;;;;;;;;;;4994965;28;20026;-76
2023/05/01 02:01:06;;;;;;;10.10;4.93;;;;;;;;;;4993845;28;20029;-76
2023/05/01 02:03:33;;;;;;;9.95;4.90;;;;;;;;;;4995114;28;20076;-77
2023/05/01 02:05:59;;;;;;;8.90;5.32;;;;;;;;;;4995362;28;20054;-76
2023/05/01 02:08:28;;;;;;;8.23;5.10;;;;;;;;;;4995215;28;20030;-77
2023/05/01 02:10:58;;;;;;;11.77;5.88;;;;;;;;;;4995338;28;20031;-77
2023/05/01 02:13:26;;;;;;;8.97;5.27;;;;;;;;;;4995505;28;20027;-77
2023/05/01 02:15:52;;;;;;;11.57;5.65;;;;;;;;;;4994948;28;20647;-77
2023/05/01 02:18:20;;;;;;;11.40;5.25;;;;;;;;;;4995023;28;20565;-77
2023/05/01 02:20:46;;;;;;;10.90;5.65;;;;;;;;;;4994856;28;20501;-77
2023/05/01 02:23:12;;;;;;;9.63;5.20;;;;;;;;;;4994809;28;20034;-77
2023/05/01 02:25:39;;;;;;;9.40;5.35;;;;;;;;;;4995024;28;20112;-77
2023/05/01 02:28:09;;;;;;;9.90;5.60;;;;;;;;;;4994851;28;20036;-77
2023/05/01 02:30:35;;;;;;;7.78;5.40;;;;;;;;;;4995016;28;20022;-77
2023/05/01 02:33:01;;;;;;;9.90;5.10;;;;;;;;;;4995022;28;20031;-77
2023/05/01 02:35:27;;;;;;;8.43;5.75;;;;;;;;;;4994843;28;20361;-77
2023/05/01 02:37:54;;;;;;;9.88;5.28;;;;;;;;;;4994440;28;20030;-77
2023/05/01 02:40:20;;;;;;;13.52;5.55;;;;;;;;;;4995919;28;20022;-77
2023/05/01 02:42:47;;;;;;;10.52;5.15;;;;;;;;;;5014391;28;20037;-77
2023/05/01 02:45:23;;;;;;;11.13;5.70;;;;;;;;;;5013999;28;20022;-77
2023/05/01 02:47:50;;;;;;;10.82;5.88;;;;;;;;;;5014147;28;20053;-77
2023/05/01 02:50:17;;;;;;;10.85;6.07;;;;;;;;;;5013934;28;20037;-77
2023/05/01 02:52:43;;;;;;;11.30;4.88;;;;;;;;;;4996067;28;20125;-77
2023/05/01 02:55:09;;;;;;;8.75;4.80;;;;;;;;;;5013881;28;20452;-77
2023/05/01 02:57:35;;;;;;;9.32;5.57;;;;;;;;;;5014194;28;20026;-77
2023/05/01 03:00:02;;;;;;;10.63;6.28;;;;;;;;;;5013844;28;20026;-77
2023/05/01 03:02:28;;;;;;;10.02;4.97;;;;;;;;;;5014046;28;20029;-77
2023/05/01 03:04:54;;;;;;;11.05;5.80;;;;;;;;;;5014028;28;20080;-77
2023/05/01 03:07:20;;;;;;;10.73;5.00;;;;;;;;;;5013871;28;20518;-77
2023/05/01 03:09:46;;;;;;;9.18;5.25;;;;;;;;;;5013929;28;20049;-77
2023/05/01 03:12:12;;;;;;;10.85;5.65;;;;;;;;;;5013788;28;20072;-77
2023/05/01 03:14:38;;;;;;;8.10;4.82;;;;;;;;;;5013829;28;20499;-77
2023/05/01 03:17:03;;;;;;;10.40;5.10;;;;;;;;;;5013536;28;20021;-77
2023/05/01 03:19:30;;;;;;;9.93;5.13;;;;;;;;;;5013456;28;20484;-77
2023/05/01 03:21:56;;;;;;;11.60;4.85;;;;;;;;;;5013529;28;20033;-77
2023/05/01 03:24:22;;;;;;;12.48;5.53;;;;;;;;;;5013834;28;20061;-77
2023/05/01 03:26:48;;;;;;;8.93;4.90;;;;;;;;;;5013445;28;20026;-77
2023/05/01 03:29:14;;;;;;;7.25;4.95;;;;;;;;;;5013365;28;20087;-77
2023/05/01 03:31:40;;;;;;;7.93;4.75;;;;;;;;;;5013453;28;20053;-77
2023/05/01 03:34:06;;;;;;;7.40;5.15;;;;;;;;;;5013183;28;20025;-77
2023/05/01 03:36:32;;;;;;;10.63;5.28;;;;;;;;;;5013282;28;20461;-77
2023/05/01 03:38:58;;;;;;;8.65;5.03;;;;;;;;;;5013464;28;20033;-77
2023/05/01 03:41:25;;;;;;;11.07;5.57;;;;;;;;;;5012689;28;20050;-77
2023/05/01 03:43:51;;;;;;;7.63;4.75;;;;;;;;;;5013373;28;20033;-77
2023/05/01 03:46:17;;;;;;;12.27;5.55;;;;;;;;;;5013198;28;20105;-77
2023/05/01 03:48:43;;;;;;;10.52;4.93;;;;;;;;;;5013372;28;20034;-77
2023/05/01 03:51:09;;;;;;;9.93;5.03;;;;;;;;;;5013128;28;20083;-77
2023/05/01 03:53:35;;;;;;;8.45;5.00;;;;;;;;;;5012800;28;20377;-77
2023/05/01 03:56:03;;;;;;;10.65;5.25;;;;;;;;;;5013020;28;20029;-77
2023/05/01 03:58:29;;;;;;;10.48;5.28;;;;;;;;;;5013508;28;20017;-77
2023/05/01 04:00:59;;;;;;;10.07;5.03;;;;;;;;;;5013399;28;20172;-77
2023/05/01 04:03:31;;;;;;;8.18;4.85;;;;;;;;;;5013152;28;20026;-77
2023/05/01 04:05:58;;;;;;;10.88;5.43;;;;;;;;;;5015617;28;20137;-77
2023/05/01 04:08:24;;;;;;;10.10;5.38;;;;;;;;;;5016798;28;20404;-77
2023/05/01 04:10:50;;;;;;;10.05;5.25;;;;;;;;;;5017054;28;20461;-77
2023/05/01 04:13:16;;;;;;;8.05;5.30;;;;;;;;;;5017467;28;20032;-77
2023/05/01 04:15:45;;;;;;;9.98;4.85;;;;;;;;;;5016902;28;20034;-77
2023/05/01 04:18:12;;;;;;;9.68;5.43;;;;;;;;;;5016898;28;20097;-77
2023/05/01 04:20:39;;;;;;;8.93;4.97;;;;;;;;;;5025996;28;20041;-77
2023/05/01 04:23:05;;;;;;;9.98;4.97;;;;;;;;;;5036747;28;20033;-76
2023/05/01 04:25:31;;;;;;;10.00;5.68;;;;;;;;;;5036743;28;20116;-77
2023/05/01 04:27:57;;;;;;;10.38;5.43;;;;;;;;;;5036591;28;20061;-77
2023/05/01 04:30:23;;;;;;;9.35;5.45;;;;;;;;;;5036776;28;20064;-77
2023/05/01 04:32:49;;;;;;;8.85;5.20;;;;;;;;;;5036355;28;20493;-77
2023/05/01 04:35:15;;;;;;;13.05;5.82;;;;;;;;;;5018474;28;20052;-77
2023/05/01 04:37:41;;;;;;;12.43;5.72;;;;;;;;;;5036483;28;20022;-77
2023/05/01 04:40:08;;;;;;;8.40;5.55;;;;;;;;;;5036069;28;20094;-77
2023/05/01 04:42:34;;;;;;;8.65;4.93;;;;;;;;;;5034851;28;20053;-77
2023/05/01 04:45:06;;;;;;;7.88;4.85;;;;;;;;;;5035977;28;20117;-77
2023/05/01 04:47:32;;;;;;;10.00;5.03;;;;;;;;;;5035854;28;20104;-77
2023/05/01 04:49:58;;;;;;;11.82;5.32;;;;;;;;;;5035730;28;20459;-77
2023/05/01 04:52:24;;;;;;;10.52;5.35;;;;;;;;;;5031418;28;20484;-77
2023/05/01 04:54:50;;;;;;;8.98;5.60;;;;;;;;;;5031963;28;20028;-77
2023/05/01 04:57:16;;;;;;;10.07;5.15;;;;;;;;;;5035944;28;20578;-77
2023/05/01 04:59:42;;;;;;;10.25;4.88;;;;;;;;;;5035852;28;20522;-77
2023/05/01 05:02:08;;;;;;;10.70;5.82;;;;;;;;;;5035838;28;20033;-77
2023/05/01 05:04:34;;;;;;;10.27;5.75;;;;;;;;;;5035642;28;20038;-77
2023/05/01 05:07:00;;;;;;;10.63;5.00;;;;;;;;;;5035898;28;20053;-77
2023/05/01 05:09:26;;;;;;;8.90;4.63;;;;;;;;;;5035645;28;20076;-77
2023/05/01 05:11:52;;;;;;;8.98;4.70;;;;;;;;;;5035878;28;20029;-77
2023/05/01 05:14:18;;;;;;;10.05;5.15;;;;;;;;;;5035789;28;20095;-77
2023/05/01 05:16:44;;;;;;;9.63;5.60;;;;;;;;;;5022315;28;20503;-77
2023/05/01 05:19:10;;;;;;;8.70;4.63;;;;;;;;;;5024771;28;20033;-77
2023/05/01 05:21:36;;;;;;;10.38;5.72;;;;;;;;;;5017863;28;20478;-77
2023/05/01 05:24:02;;;;;;;8.95;5.15;;;;;;;;;;5035921;28;20048;-77
2023/05/01 05:26:28;;;;;;;8.80;4.55;;;;;;;;;;5026865;28;20026;-77
2023/05/01 05:28:54;;;;;;;13.48;4.97;;;;;;;;;;5035331;28;20029;-77
2023/05/01 05:31:20;;;;;;;7.57;4.35;;;;;;;;;;5017708;28;20033;-77
2023/05/01 05:33:46;;;;;;;11.55;5.57;;;;;;;;;;5035395;28;20022;-77
2023/05/01 05:36:12;;;;;;;9.75;5.03;;;;;;;;;;5035145;28;20101;-77
2023/05/01 05:38:39;;;;;;;8.55;4.35;;;;;;;;;;5035363;28;20022;-77
2023/05/01 05:41:05;;;;;;;10.55;4.70;;;;;;;;;;5013752;28;20054;-78
2023/05/01 05:43:31;;;;;;;7.97;4.20;;;;;;;;;;5015298;28;20037;-77
2023/05/01 05:45:57;;;;;;;8.32;4.88;;;;;;;;;;4996021;28;20066;-77
2023/05/01 05:48:24;;;;;;;6.97;4.53;;;;;;;;;;4995420;28;20041;-78
2023/05/01 05:50:51;;;;;;;7.90;4.15;;;;;;;;;;4996026;28;20037;-77
2023/05/01 05:53:17;;;;;;;8.70;4.80;;;;;;;;;;4996210;28;20381;-77
2023/05/01 05:55:44;;;;;;;7.03;4.63;;;;;;;;;;4994414;28;20034;-77
2023/05/01 05:58:10;;;;;;;7.68;4.82;;;;;;;;;;4996004;28;20026;-77
2023/05/01 06:00:36;;;;;;;7.45;4.28;;;;;;;;;;4995805;28;20030;-77
2023/05/01 06:03:02;;;;;;;6.50;4.20;;;;;;;;;;4995363;28;20359;-77
2023/05/01 06:05:29;;;;;;;6.47;4.60;;;;;;;;;;4995577;28;20041;-77
2023/05/01 06:07:55;;;;;;;7.78;4.50;;;;;;;;;;4995109;28;20029;-77
2023/05/01 06:10:21;;;;;;;7.63;4.85;;;;;;;;;;4995115;28;20023;-77
2023/05/01 06:12:47;;;;;;;7.00;4.40;;;;;;;;;;4995314;28;20110;-77
2023/05/01 06:15:15;;;;;;;7.63;4.55;;;;;;;;;;4995070;28;20134;-77
2023/05/01 06:17:41;;;;;;;7.43;4.78;;;;;;;;;;4994964;28;20022;-77
2023/05/01 06:20:08;;;;;;;7.78;4.82;;;;;;;;;;4994961;28;20027;-77
2023/05/01 06:22:34;;;;;;;9.25;5.57;;;;;;;;;;5014290;28;20042;-77
2023/05/01 06:25:00;;;;;;;9.68;4.80;;;;;;;;;;4999441;28;20030;-77
2023/05/01 06:27:26;;;;;;;7.93;5.07;;;;;;;;;;4994138;28;20473;-78
2023/05/01 06:29:52;;;;;;;8.57;5.00;;;;;;;;;;4995191;28;20030;-77
2023/05/01 06:32:18;;;;;;;6.50;4.57;;;;;;;;;;5002589;28;20030;-77
2023/05/01 06:34:44;;;;;;;6.38;4.53;;;;;;;;;;5014164;28;20030;-77
2023/05/01 06:37:10;;;;;;;9.85;4.63;;;;;;;;;;5014257;28;20088;-77
2023/05/01 06:39:36;;;;;;;7.63;4.80;;;;;;;;;;5014270;28;20026;-78
2023/05/01 06:42:03;;;;;;;7.82;4.75;;;;;;;;;;5012503;28;20046;-77
2023/05/01 06:44:29;;;;;;;10.20;4.85;;;;;;;;;;5014211;28;20037;-78
2023/05/01 06:46:55;;;;;;;8.38;4.70;;;;;;;;;;5011130;28;20022;-78
2023/05/01 06:49:22;;;;;;;6.18;4.53;;;;;;;;;;4994606;28;20038;-78
2023/05/01 06:51:48;;;;;;;6.93;4.50;;;;;;;;;;4994417;28;20022;-78
2023/05/01 06:54:14;;;;;;;7.57;5.20;;;;;;;;;;4994376;28;20030;-78
2023/05/01 06:56:40;;;;;;;8.38;4.55;;;;;;;;;;4994329;28;20477;-78
2023/05/01 06:59:06;;;;;;;6.65;4.53;;;;;;;;;;5013365;28;20100;-78
2023/05/01 07:01:32;;;;;;;7.13;4.40;;;;;;;;;;5014138;28;20499;-78
2023/05/01 07:03:58;;;;;;;6.68;4.78;;;;;;;;;;5014058;28;20664;-78
2023/05/01 07:06:24;;;;;;;8.55;4.80;;;;;;;;;;5013720;28;20026;-78
2023/05/01 07:08:50;;;;;;;7.63;4.97;;;;;;;;;;5014652;28;20137;-78
2023/05/01 07:11:17;;;;;;;7.65;4.88;;;;;;;;;;5014319;28;20026;-78
2023/05/01 07:13:43;;;;;;;6.32;4.65;;;;;;;;;;5014604;28;20649;-78
2023/05/01 07:16:09;;;;;;;7.25;5.05;;;;;;;;;;5014571;28;20033;-78
2023/05/01 07:18:36;;;;;;;7.55;4.93;;;;;;;;;;5014241;28;20696;-78
2023/05/01 07:21:02;;;;;;;7.22;4.75;;;;;;;;;;5013062;28;20057;-78
2023/05/01 07:23:28;;;;;;;7.05;4.90;;;;;;;;;;5013998;28;20058;-78
2023/05/01 07:25:54;;;;;;;6.78;4.40;;;;;;;;;;5013331;28;20068;-78
2023/05/01 07:28:21;;;;;;;8.45;5.50;;;;;;;;;;5014060;28;20124;-78
2023/05/01 07:30:47;;;;;;;8.45;5.20;;;;;;;;;;5013907;28;20129;-78
2023/05/01 07:33:13;;;;;;;6.43;4.78;;;;;;;;;;5013591;28;20477;-78
2023/05/01 07:35:40;;;;;;;7.00;4.72;;;;;;;;;;5013596;28;20026;-78
2023/05/01 07:38:06;;;;;;;6.93;5.00;;;;;;;;;;5013175;28;20026;-78
2023/05/01 07:40:33;;;;;;;9.10;4.90;;;;;;;;;;5013851;28;20092;-78
2023/05/01 07:42:59;;;;;;;6.82;4.22;;;;;;;;;;5026328;28;20045;-78
2023/05/01 07:45:25;;;;;;;5.28;4.28;;;;;;;;;;5015067;28;20108;-78
2023/05/01 07:47:52;;;;;;;7.07;4.00;;;;;;;;;;5021335;28;20032;-79
2023/05/01 07:50:18;;;;;;;6.57;4.18;;;;;;;;;;5017591;28;20412;-78
2023/05/01 07:52:44;;;;;;;7.85;4.13;;;;;;;;;;5035506;28;20037;-79
2023/05/01 07:55:10;;;;;;;5.93;4.18;;;;;;;;;;5034568;28;20491;-78
2023/05/01 07:57:36;;;;;;;6.63;5.22;;;;;;;;;;5022498;28;20057;-78
2023/05/01 08:00:02;;;;;;;7.25;4.40;;;;;;;;;;5014445;28;20121;-78
2023/05/01 08:02:28;;;;;;;7.90;4.78;;;;;;;;;;5017087;28;20033;-78
2023/05/01 08:04:54;;;;;;;8.27;5.20;;;;;;;;;;5035267;28;20032;-78
2023/05/01 08:07:20;;;;;;;6.43;4.80;;;;;;;;;;5035565;28;20022;-78
2023/05/01 08:09:46;;;;;;;8.60;4.68;;;;;;;;;;5035871;28;20032;-78
2023/05/01 08:12:12;;;;;;;6.00;4.60;;;;;;;;;;5033629;28;20025;-78
2023/05/01 08:14:38;;;;;;;6.85;4.20;;;;;;;;;;5035148;28;20026;-78
2023/05/01 08:17:05;;;;;;;6.18;4.38;;;;;;;;;;5029137;28;20080;-78
2023/05/01 08:19:31;;;;;;;6.93;4.53;;;;;;;;;;5024159;28;20030;-78
2023/05/01 08:21:57;;;;;;;7.50;4.88;;;;;;;;;;5035538;28;20026;-78
2023/05/01 08:24:23;;;;;;;5.70;4.55;;;;;;;;;;5034471;28;20121;-78
2023/05/01 08:26:50;;;;;;;8.20;4.40;;;;;;;;;;5034809;28;20026;-78
2023/05/01 08:29:16;;;;;;;5.90;3.65;;;;;;;;;;5037089;28;20010;-78
2023/05/01 08:31:42;;;;;;;8.10;4.80;;;;;;;;;;5036446;28;20113;-78
2023/05/01 08:34:08;;;;;;;5.75;3.90;;;;;;;;;;5035819;28;20030;-78
2023/05/01 08:36:34;;;;;;;7.50;4.00;;;;;;;;;;5036862;28;20032;-79
2023/05/01 08:39:00;;;;;;;6.72;4.47;;;;;;;;;;5016530;28;20030;-78
2023/05/01 08:41:40;;;;;;;6.07;3.67;;;;;;;;;;5032509;28;20057;-79
2023/05/01 08:44:08;;;;;;;7.20;4.68;;;;;;;;;;5015062;28;20414;-78
2023/05/01 08:46:43;;;;;;;7.75;4.10;;;;;;;;;;5033160;28;20112;-78
2023/05/01 08:49:10;;;;;;;5.30;3.67;;;;;;;;;;5017283;28;20037;-78
2023/05/01 08:51:37;;;;;;;8.95;5.03;;;;;;;;;;5034436;28;20028;-78
2023/05/01 08:54:03;;;;;;;6.18;4.07;;;;;;;;;;5016601;28;20477;-78
2023/05/01 08:56:30;;;;;;;5.53;3.75;;;;;;;;;;5016619;28;20472;-78
2023/05/01 08:58:56;;;;;;;6.22;3.90;;;;;;;;;;5016635;28;20018;-78
2023/05/01 09:01:23;;;;;;;7.25;4.80;;;;;;;;;;5022056;28;20026;-78
2023/05/01 09:03:50;;;;;;;6.68;4.20;;;;;;;;;;5037613;28;20112;-78
2023/05/01 09:06:16;;;;;;;5.75;3.85;;;;;;;;;;5036070;28;20095;-78
2023/05/01 09:08:42;;;;;;;6.80;3.85;;;;;;;;;;5038542;28;20033;-78
2023/05/01 09:11:08;;;;;;;4.45;3.15;;;;;;;;;;5020061;28;20033;-78
2023/05/01 09:13:34;;;;;;;6.53;3.53;;;;;;;;;;5036424;28;20025;-78
2023/05/01 09:16:00;;;;;;;5.25;3.55;;;;;;;;;;5037672;28;20074;-79
2023/05/01 09:18:27;;;;;;;5.43;3.33;;;;;;;;;;5037830;28;20656;-78
2023/05/01 09:20:54;;;;;;;3.97;2.38;;;;;;;;;;5036027;28;20097;-78
2023/05/01 09:23:20;;;;;;;4.85;2.60;;;;;;;;;;5019131;28;20025;-78
2023/05/01 09:25:46;;;;;;;4.72;3.00;;;;;;;;;;5037150;28;20032;-78
2023/05/01 09:28:12;;;;;;;2.83;2.00;;;;;;;;;;5017783;28;20021;-78
2023/05/01 09:30:39;;;;;;;3.88;2.50;;;;;;;;;;5035837;28;20368;-78
2023/05/01 09:33:05;;;;;;;4.47;2.58;;;;;;;;;;5037237;28;20057;-78
2023/05/01 09:35:32;;;;;;;5.80;2.47;;;;;;;;;;5036243;28;20053;-78
2023/05/01 09:37:59;;;;;;;5.22;2.97;;;;;;;;;;5036195;28;20105;-78
2023/05/01 09:40:28;;;;;;;5.70;2.95;;;;;;;;;;5024449;28;20072;-78
2023/05/01 09:42:57;;;;;;;3.80;2.60;;;;;;;;;;5014398;28;20100;-78
2023/05/01 09:45:25;;;;;;;5.57;2.75;;;;;;;;;;5016645;28;20022;-78
2023/05/01 09:47:52;;;;;;;3.25;2.35;;;;;;;;;;5015909;28;20018;-78
2023/05/01 09:50:28;;;;;;;4.32;2.55;;;;;;;;;;5016001;28;20029;-78
2023/05/01 09:52:54;;;;;;;5.53;2.80;;;;;;;;;;5016145;28;20037;-78
2023/05/01 09:55:22;;;;;;;5.78;2.78;;;;;;;;;;4997732;28;20022;-78
2023/05/01 09:57:48;;;;;;;6.30;2.95;;;;;;;;;;5029210;28;20064;-78
2023/05/01 10:00:15;;;;;;;3.33;2.58;;;;;;;;;;5035196;28;20056;-78
2023/05/01 10:02:42;;;;;;;5.22;2.88;;;;;;;;;;5034460;28;20067;-78
2023/05/01 10:05:09;;;;;;;3.03;2.22;;;;;;;;;;5034995;28;20441;-78
2023/05/01 10:07:35;;;;;;;3.03;2.47;;;;;;;;;;5035267;28;20029;-78
2023/05/01 10:10:17;;;;;;;3.38;2.10;;;;;;;;;;5035321;28;20018;-78
2023/05/01 10:12:43;;;;;;;5.35;2.85;;;;;;;;;;5019028;28;20029;-78
2023/05/01 10:15:09;;;;;;;4.68;2.35;;;;;;;;;;5035297;28;20021;-78
2023/05/01 10:17:37;;;;;;;2.67;2.25;;;;;;;;;;5034520;28;20108;-78
2023/05/01 10:20:03;;;;;;;3.47;2.20;;;;;;;;;;5034886;28;20104;-78
2023/05/01 10:22:29;;;;;;;4.20;2.05;;;;;;;;;;5034416;28;20044;-78
2023/05/01 10:24:55;;;;;;;4.07;2.17;;;;;;;;;;5034287;28;20468;-78
2023/05/01 10:27:24;;;;;;;2.60;1.50;;;;;;;;;;5035520;28;20072;-79
2023/05/01 10:29:52;;;;;;;1.52;1.30;;;;;;;;;;5035524;28;20014;-78
2023/05/01 10:32:19;;;;;;;4.68;1.45;;;;;;;;;;5036314;28;20026;-78
2023/05/01 10:34:47;;;;;;;2.40;1.42;;;;;;;;;;5036671;28;20387;-78
2023/05/01 10:37:17;;;;;;;4.35;1.55;;;;;;;;;;5035603;28;20030;-78
2023/05/01 10:39:43;;;;;;;4.38;1.70;;;;;;;;;;5035102;28;20032;-78
2023/05/01 10:42:13;;;;;;;3.25;1.73;;;;;;;;;;5033967;28;20057;-78
2023/05/01 10:44:39;;;;;;;5.55;2.00;;;;;;;;;;5026281;28;20032;-78
2023/05/01 10:47:26;;;;;;;3.85;1.88;;;;;;;;;;5016881;28;20026;-78
2023/05/01 10:50:14;;;;;;;4.18;1.70;;;;;;;;;;5015570;28;20049;-79
2023/05/01 10:53:00;;;;;;;3.85;1.98;;;;;;;;;;5036636;28;20168;-78
2023/05/01 10:55:31;;;;;;;3.10;2.28;;;;;;;;;;5034369;28;20017;-78
2023/05/01 10:57:57;;;;;;;3.17;1.88;;;;;;;;;;5016316;28;20034;-79
2023/05/01 11:00:23;;;;;;;2.95;2.20;;;;;;;;;;4999567;28;20033;-78
2023/05/01 11:02:49;;;;;;;5.38;2.58;;;;;;;;;;5036105;28;20081;-79
2023/05/01 11:05:15;;;;;;;4.80;2.53;;;;;;;;;;5037039;28;20116;-78
2023/05/01 11:07:41;;;;;;;4.80;2.67;;;;;;;;;;5036169;28;20030;-78
2023/05/01 11:10:25;;;;;;;4.75;2.70;;;;;;;;;;5030806;28;20029;-79
2023/05/01 11:12:51;;;;;;;5.95;3.28;;;;;;;;;;5037232;28;20021;-79
2023/05/01 11:15:26;;;;;;;5.32;2.97;;;;;;;;;;5034483;28;20420;-78
2023/05/01 11:17:52;;;;;;;5.57;3.33;;;;;;;;;;5034974;28;20025;-78
2023/05/01 11:20:24;;;;;;;7.68;3.80;;;;;;;;;;5029282;28;20530;-78
2023/05/01 11:22:57;;;;;;;5.75;3.45;;;;;;;;;;5017265;28;20053;-78
2023/05/01 11:25:27;;;;;;;6.80;3.70;;;;;;;;;;5035289;28;20053;-78
2023/05/01 11:27:55;;;;;;;5.47;3.75;;;;;;;;;;5033895;28;20021;-78
2023/05/01 11:30:21;;;;;;;6.18;3.80;;;;;;;;;;5033733;28;20061;-78
2023/05/01 11:32:47;;;;;;;7.50;4.20;;;;;;;;;;5034306;28;20131;-78
2023/05/01 11:35:17;;;;;;;7.65;3.90;;;;;;;;;;5034127;28;20025;-78
2023/05/01 11:37:43;;;;;;;8.38;4.40;;;;;;;;;;5033343;28;20029;-78
2023/05/01 11:40:21;;;;;;;7.25;4.38;;;;;;;;;;5034202;28;20049;-78
2023/05/01 11:42:47;;;;;;;8.82;4.47;;;;;;;;;;5033316;28;20053;-78
2023/05/01 11:45:13;;;;;;;6.20;4.55;;;;;;;;;;5034600;28;20026;-78
2023/05/01 11:47:40;;;;;;;7.55;4.80;;;;;;;;;;5015326;28;20028;-78
2023/05/01 11:50:06;;;;;;;5.72;4.68;;;;;;;;;;5033404;28;20025;-78
2023/05/01 11:53:02;;;;;;;8.48;5.53;;;;;;;;;;5033303;28;20078;-78
2023/05/01 11:55:37;;;;;;;7.85;5.55;;;;;;;;;;5024204;28;20104;-78
2023/05/01 11:58:03;;;;;;;8.88;5.07;;;;;;;;;;5033675;28;20064;-78
2023/05/01 12:00:35;;;;;;;8.73;5.47;;;;;;;;;;5033021;28;20455;-78
2023/05/01 12:03:02;;;;;;;7.60;5.45;;;;;;;;;;5014936;28;20065;-78
2023/05/01 12:05:29;;;;;;;7.55;4.82;;;;;;;;;;5010503;28;20034;-78
2023/05/01 12:08:14;;;;;;;7.10;5.30;;;;;;;;;;5012825;28;20049;-78
2023/05/01 12:10:42;;;;;;;10.18;6.10;;;;;;;;;;5013412;28;20117;-78
2023/05/01 12:13:09;;;;;;;7.63;5.78;;;;;;;;;;5013480;28;20120;-78
2023/05/01 12:15:36;;;;;;;9.20;6.35;;;;;;;;;;4995297;28;20030;-78
2023/05/01 12:18:02;;;;;;;8.73;6.20;;;;;;;;;;5013173;28;20104;-78
2023/05/01 12:20:36;;;;;;;10.57;5.75;;;;;;;;;;5012754;28;20472;-77
2023/05/01 12:23:04;;;;;;;10.07;6.03;;;;;;;;;;4995109;28;20022;-78
2023/05/01 12:25:30;;;;;;;9.60;5.90;;;;;;;;;;5013494;28;20022;-78
2023/05/01 12:27:57;;;;;;;8.73;5.70;;;;;;;;;;5025444;28;20082;-78
2023/05/01 12:30:28;;;;;;;8.77;6.50;;;;;;;;;;5016476;28;20528;-78
2023/05/01 12:32:54;;;;;;;8.10;6.68;;;;;;;;;;5017319;28;20173;-78
2023/05/01 12:35:22;;;;;;;11.48;6.57;;;;;;;;;;4998828;28;20061;-78
2023/05/01 12:37:48;;;;;;;9.52;6.68;;;;;;;;;;5023675;28;20034;-78
2023/05/01 12:40:15;;;;;;;12.98;7.38;;;;;;;;;;5036440;28;20030;-78
2023/05/01 12:42:41;;;;;;;8.73;7.18;;;;;;;;;;5034081;28;20050;-78
2023/05/01 12:45:13;;;;;;;12.18;7.30;;;;;;;;;;5036135;28;20029;-78
2023/05/01 12:47:40;;;;;;;10.15;7.35;;;;;;;;;;5036669;28;20461;-78
2023/05/01 12:50:06;;;;;;;12.45;7.50;;;;;;;;;;5028132;28;20030;-78
2023/05/01 12:52:32;;;;;;;12.52;6.95;;;;;;;;;;5016459;28;20400;-78
2023/05/01 12:55:02;;;;;;;12.98;7.50;;;;;;;;;;5016775;28;20026;-78
2023/05/01 12:57:28;;;;;;;10.05;7.20;;;;;;;;;;5016552;28;20026;-78
2023/05/01 13:00:01;;;;;;;15.43;7.43;;;;;;;;;;5016568;28;20580;-79
2023/05/01 13:02:31;;;;;;;8.73;6.80;;;;;;;;;;5018315;28;20036;-78
2023/05/01 13:04:57;;;;;;;;;;;;;;;;;;5001307;28;20038;-78
2023/05/01 13:07:23;;;;;;;;;;;;;;;;;;5017971;28;19905;-79
2023/05/01 13:09:48;;;;;;;;;;;;;;;;;;5018837;28;20388;-78
2023/05/01 13:12:15;;;;;;;;;;;;;;;;;;5021400;28;19988;-78
2023/05/01 13:14:41;;;;;;;;;;;;;;;;;;5020283;28;19950;-79
2023/05/01 13:17:09;;;;;;;;;;;;;;;;;;5020692;28;19905;-79
2023/05/01 13:19:35;;;;;;;;;;;;;;;;;;5031808;28;19916;-78
2023/05/01 13:22:01;;;;;;;;;;;;;;;;;;5037573;28;19905;-79
2023/05/01 13:24:27;;;;;;;;;;;;;;;;;;5039667;28;20253;-78
2023/05/01 13:26:52;;;;;;;;;;;;;;;;;;5040232;28;19909;-78
2023/05/01 13:29:18;;;;;;;;;;;;;;;;;;5038900;28;20311;-78
2023/05/01 13:31:44;;;;;;;;;;;;;;;;;;5039164;28;19909;-78
2023/05/01 13:34:11;;;;;;;;;;;;;;;;;;5039344;28;19905;-79
2023/05/01 13:36:37;;;;;;;;;;;;;;;;;;5038783;28;19916;-78
2023/05/01 13:39:03;;;;;;;;;;;;;;;;;;5037740;28;19905;-78
2023/05/01 13:41:29;;;;;;;;;;;;;;;;;;5037276;28;19959;-78
2023/05/01 13:43:55;;;;;;;;;;;;;;;;;;5036775;28;19927;-78
2023/05/01 13:46:21;;;;;;;;;;;;;;;;;;5037472;28;19905;-78
2023/05/01 13:48:47;;;;;;;;;;;;;;;;;;5038134;28;19909;-78
2023/05/01 13:51:12;;;;;;;;;;;;;;;;;;5037619;28;19913;-78
2023/05/01 13:53:39;;;;;;;;;;;;;;;;;;5036722;28;19917;-78
2023/05/01 13:56:04;;;;;;;;;;;;;;;;;;5018767;28;19909;-78
2023/05/01 13:58:30;;;;;;;;;;;;;;;;;;5036420;28;20324;-78
2023/05/01 14:00:56;;;;;;;;;;;;;;;;;;5037184;28;19912;-78
2023/05/01 14:03:22;;;;;;;;;;;;;;;;;;5036542;28;19913;-78
2023/05/01 14:05:48;;;;;;;;;;;;;;;;;;5036479;28;20275;-78
2023/05/01 14:08:14;;;;;;;;;;;;;;;;;;5035940;28;19905;-77
2023/05/01 14:10:40;;;;;;;;;;;;;;;;;;5035481;28;19905;-77
2023/05/01 14:13:06;;;;;;;;;;;;;;;;;;5035164;28;19905;-77
2023/05/01 14:15:32;;;;;;;;;;;;;;;;;;5035249;28;20055;-78
2023/05/01 14:17:59;;;;;;;;;;;;;;;;;;5035192;28;19958;-77
2023/05/01 14:20:25;;;;;;;;;;;;;;;;;;5035256;28;19962;-77
2023/05/01 14:22:52;;;;;;;;;;;;;;;;;;5035704;28;19991;-77
2023/05/01 14:25:18;;;;;;;;;;;;;;;;;;5036675;28;19909;-78
2023/05/01 14:27:44;;;;;;;;;;;;;;;;;;5016522;28;20370;-78
2023/05/01 14:30:10;;;;;;;;;;;;;;;;;;5017593;28;19912;-78
2023/05/01 14:32:35;;;;;;;;;;;;;;;;;;5017487;28;20414;-78
2023/05/01 14:35:02;;;;;;;;;;;;;;;;;;5016314;28;19905;-78
2023/05/01 14:37:28;;;;;;;;;;;;;;;;;;5015327;28;19913;-77
2023/05/01 14:39:55;;;;;;;;;;;;;;;;;;5014917;28;19905;-77
2023/05/01 14:42:21;;;;;;;;;;;;;;;;;;5013664;28;19968;-78
2023/05/01 14:44:47;;;;;;;;;;;;;;;;;;4998539;28;19952;-77
2023/05/01 14:47:13;;;;;;;;;;;;;;;;;;5034732;28;19904;-77
2023/05/01 14:49:38;;;;;;;;;;;;;;;;;;5033942;28;20275;-77
2023/05/01 14:52:05;;;;;;;;;;;;;;;;;;5034141;28;20355;-77
2023/05/01 14:54:31;;;;;;;;;;;;;;;;;;5034247;28;19912;-77